createdAt,value
2022-12-14T00:00:12.658Z,13.32
2022-12-14T00:02:42.047Z,14.03
2022-12-14T00:05:13.210Z,12.93
2022-12-14T00:07:42.718Z,13.62
2022-12-14T00:10:10.953Z,12.60
2022-12-14T00:12:39.369Z,13.85
2022-12-14T00:15:07.781Z,13.50
2022-12-14T00:17:37.054Z,13.38
2022-12-14T00:20:07.135Z,15.13
2022-12-14T00:22:35.293Z,14.83
2022-12-14T00:25:03.263Z,15.10
2022-12-14T00:27:32.421Z,16.27
2022-12-14T00:30:00.834Z,16.37
2022-12-14T00:32:29.076Z,15.08
2022-12-14T00:34:57.423Z,16.90
2022-12-14T00:37:25.715Z,16.42
2022-12-14T00:39:54.035Z,18.07
2022-12-14T00:42:21.522Z,16.70
2022-12-14T00:44:49.165Z,17.27
2022-12-14T00:47:17.152Z,17.23
2022-12-14T00:49:45.497Z,17.70
2022-12-14T00:52:16.379Z,17.87
2022-12-14T00:54:44.469Z,17.90
2022-12-14T00:57:12.376Z,17.87
2022-12-14T00:59:40.406Z,17.77
2022-12-14T01:02:11.882Z,16.48
2022-12-14T01:04:47.556Z,15.80
2022-12-14T01:07:15.841Z,15.25
2022-12-14T01:09:44.383Z,15.55
2022-12-14T01:12:12.575Z,15.60
2022-12-14T01:14:40.817Z,13.88
2022-12-14T01:17:08.442Z,14.45
2022-12-14T01:19:36.650Z,14.28
2022-12-14T01:22:05.214Z,14.75
2022-12-14T01:24:33.186Z,15.70
2022-12-14T01:27:01.846Z,14.70
2022-12-14T01:29:29.988Z,14.53
2022-12-14T01:31:58.694Z,14.95
2022-12-14T01:34:27.511Z,16.12
2022-12-14T01:36:55.338Z,15.30
2022-12-14T01:39:22.860Z,15.78
2022-12-14T01:41:55.267Z,15.58
2022-12-14T01:44:27.213Z,16.62
2022-12-14T01:47:12.186Z,15.30
2022-12-14T01:49:41.945Z,16.12
2022-12-14T01:52:30.310Z,16.12
2022-12-14T01:55:05.153Z,15.50
2022-12-14T01:57:54.948Z,15.88
2022-12-14T02:00:23.421Z,14.55
2022-12-14T02:03:00.884Z,14.03
2022-12-14T02:05:31.949Z,13.83
2022-12-14T02:08:00.384Z,15.23
2022-12-14T02:10:31.385Z,15.60
2022-12-14T02:13:05.719Z,15.85
2022-12-14T02:15:35.197Z,15.58
2022-12-14T02:18:06.296Z,17.02
2022-12-14T02:20:37.579Z,16.67
2022-12-14T02:23:15.527Z,17.73
2022-12-14T02:25:49.331Z,17.15
2022-12-14T02:28:23.696Z,19.27
2022-12-14T02:34:01.092Z,17.50
2022-12-14T02:36:38.456Z,17.35
2022-12-14T02:39:19.447Z,17.67
2022-12-14T02:41:54.683Z,16.32
2022-12-14T02:44:41.041Z,16.27
2022-12-14T02:47:33.056Z,15.63
2022-12-14T02:50:13.952Z,16.02
2022-12-14T02:53:03.198Z,16.00
2022-12-14T02:55:35.499Z,14.87
2022-12-14T02:58:13.438Z,14.53
2022-12-14T03:00:41.920Z,14.00
2022-12-14T03:03:09.912Z,14.15
2022-12-14T03:05:37.936Z,15.08
2022-12-14T03:08:09.339Z,14.58
2022-12-14T03:10:53.638Z,15.38
2022-12-14T03:13:40.699Z,14.68
2022-12-14T03:16:24.523Z,15.03
2022-12-14T03:18:56.353Z,14.80
2022-12-14T03:21:37.536Z,15.23
2022-12-14T03:24:09.145Z,13.40
2022-12-14T03:26:50.027Z,14.45
2022-12-14T03:29:36.631Z,14.53
2022-12-14T03:32:08.488Z,14.73
2022-12-14T03:34:39.552Z,15.48
2022-12-14T03:37:11.235Z,14.55
2022-12-14T03:39:42.114Z,14.73
2022-12-14T03:42:23.746Z,15.32
2022-12-14T03:45:07.649Z,14.95
2022-12-14T03:48:05.827Z,14.83
2022-12-14T03:50:40.539Z,15.30
2022-12-14T03:56:05.013Z,14.90
2022-12-14T03:59:10.217Z,14.45
2022-12-14T04:02:06.693Z,14.90
2022-12-14T04:04:44.671Z,15.85
2022-12-14T04:07:31.306Z,16.12
2022-12-14T04:10:14.026Z,14.47
2022-12-14T04:13:13.471Z,16.32
2022-12-14T04:16:04.486Z,16.10
2022-12-14T04:18:59.583Z,15.90
2022-12-14T04:21:31.128Z,15.58
2022-12-14T04:24:24.345Z,14.78
2022-12-14T04:26:59.335Z,15.48
2022-12-14T04:29:49.224Z,14.73
2022-12-14T04:32:24.970Z,16.42
2022-12-14T04:34:56.007Z,21.33
2022-12-14T04:37:27.025Z,18.95
2022-12-14T04:39:58.897Z,19.42
2022-12-14T04:42:33.253Z,18.48
2022-12-14T04:47:34.682Z,16.55
2022-12-14T04:50:15.571Z,16.48
2022-12-14T04:52:47.636Z,15.63
2022-12-14T04:55:38.776Z,14.60
2022-12-14T04:58:13.407Z,15.50
2022-12-14T05:00:45.193Z,14.70
2022-12-14T05:03:19.613Z,14.60
2022-12-14T05:06:10.053Z,15.03
2022-12-14T05:09:02.438Z,15.85
2022-12-14T05:11:53.536Z,15.40
2022-12-14T05:14:19.976Z,15.70
2022-12-14T05:16:50.765Z,15.75
2022-12-14T05:19:18.571Z,15.03
2022-12-14T05:21:49.861Z,15.88
2022-12-14T05:24:18.749Z,15.72
2022-12-14T05:26:46.599Z,14.25
2022-12-14T05:29:16.217Z,15.65
2022-12-14T05:31:49.397Z,14.80
2022-12-14T05:34:15.241Z,14.85
2022-12-14T05:36:43.151Z,14.18
2022-12-14T05:39:10.782Z,15.45
2022-12-14T05:41:38.788Z,14.35
2022-12-14T05:44:07.322Z,15.65
2022-12-14T05:46:35.406Z,14.28
2022-12-14T05:49:04.529Z,15.98
2022-12-14T05:51:33.132Z,14.47
2022-12-14T05:54:01.266Z,15.50
2022-12-14T05:56:29.578Z,14.65
2022-12-14T05:59:00.776Z,15.20
2022-12-14T06:01:29.121Z,15.63
2022-12-14T06:03:57.002Z,16.00
2022-12-14T06:06:24.772Z,15.58
2022-12-14T06:08:52.880Z,14.65
2022-12-14T06:11:22.815Z,14.87
2022-12-14T06:13:51.996Z,15.58
2022-12-14T06:16:22.902Z,16.42
2022-12-14T06:18:56.233Z,15.95
2022-12-14T06:21:27.381Z,16.40
2022-12-14T06:23:57.450Z,16.82
2022-12-14T06:26:26.851Z,17.25
2022-12-14T06:28:56.378Z,16.05
2022-12-14T06:31:30.048Z,17.05
2022-12-14T06:34:00.415Z,16.15
2022-12-14T06:36:33.025Z,15.72
2022-12-14T06:39:04.617Z,15.28
2022-12-14T06:41:32.427Z,15.38
2022-12-14T06:44:06.912Z,14.80
2022-12-14T06:46:36.312Z,16.00
2022-12-14T06:49:06.174Z,15.88
2022-12-14T06:51:41.591Z,14.65
2022-12-14T06:54:15.433Z,15.95
2022-12-14T06:56:44.445Z,16.13
2022-12-14T06:59:13.377Z,16.00
2022-12-14T07:01:41.408Z,16.87
2022-12-14T07:04:10.373Z,16.05
2022-12-14T07:06:41.656Z,15.83
2022-12-14T07:09:30.136Z,16.60
2022-12-14T07:11:58.516Z,17.90
2022-12-14T07:14:26.918Z,24.70
2022-12-14T07:16:55.169Z,20.12
2022-12-14T07:19:23.275Z,18.73
2022-12-14T07:21:57.500Z,19.15
2022-12-14T07:24:25.777Z,17.87
2022-12-14T07:26:53.763Z,18.70
2022-12-14T07:29:21.922Z,18.65
2022-12-14T07:31:51.459Z,19.55
2022-12-14T07:34:21.650Z,21.05
2022-12-14T07:36:54.986Z,21.48
2022-12-14T07:39:23.283Z,24.05
2022-12-14T07:41:50.842Z,22.98
2022-12-14T07:44:20.813Z,24.72
2022-12-14T07:46:49.188Z,23.95
2022-12-14T07:49:20.376Z,23.85
2022-12-14T07:51:48.245Z,22.35
2022-12-14T07:54:16.165Z,22.77
2022-12-14T07:56:46.845Z,24.18
2022-12-14T07:59:16.783Z,21.60
2022-12-14T08:01:45.419Z,19.17
2022-12-14T08:04:26.034Z,20.05
2022-12-14T08:06:54.309Z,17.52
2022-12-14T08:09:37.108Z,19.48
2022-12-14T08:12:05.480Z,18.45
2022-12-14T08:14:35.061Z,19.25
2022-12-14T08:17:09.494Z,20.45
2022-12-14T08:19:37.788Z,22.02
2022-12-14T08:22:12.339Z,20.70
2022-12-14T08:24:44.252Z,22.00
2022-12-14T08:27:14.567Z,20.75
2022-12-14T08:29:43.040Z,42.03
2022-12-14T08:32:11.619Z,21.20
2022-12-14T08:34:40.660Z,21.17
2022-12-14T08:37:09.146Z,23.70
2022-12-14T08:39:49.473Z,23.07
2022-12-14T08:42:20.315Z,22.85
2022-12-14T08:44:48.438Z,23.00
2022-12-14T08:47:19.428Z,23.18
2022-12-14T08:49:47.486Z,23.47
2022-12-14T08:52:16.965Z,24.10
2022-12-14T08:54:45.660Z,23.45
2022-12-14T08:57:13.341Z,24.70
2022-12-14T09:02:12.995Z,22.95
2022-12-14T09:04:41.592Z,20.97
2022-12-14T09:07:09.795Z,21.00
2022-12-14T09:09:38.003Z,19.32
2022-12-14T09:12:07.687Z,20.02
2022-12-14T09:14:36.789Z,20.75
2022-12-14T09:17:08.281Z,21.02
2022-12-14T09:19:56.348Z,21.15
2022-12-14T09:22:24.793Z,20.05
2022-12-14T09:24:54.073Z,20.12
2022-12-14T09:27:22.670Z,20.32
2022-12-14T09:29:52.279Z,20.60
2022-12-14T09:32:20.392Z,21.57
2022-12-14T09:34:48.273Z,22.05
2022-12-14T09:37:16.533Z,23.27
2022-12-14T09:39:44.478Z,21.52
2022-12-14T09:42:36.734Z,21.70
2022-12-14T09:45:12.416Z,21.95
2022-12-14T09:47:52.987Z,21.77
2022-12-14T09:50:23.013Z,21.85
2022-12-14T09:52:56.710Z,22.07
2022-12-14T09:55:28.273Z,23.20
2022-12-14T09:58:03.868Z,22.05
2022-12-14T10:00:52.906Z,22.13
2022-12-14T10:03:26.868Z,21.90
2022-12-14T10:06:21.763Z,20.88
2022-12-14T10:09:04.531Z,21.77
2022-12-14T10:11:45.329Z,22.85
2022-12-14T10:14:52.238Z,21.65
2022-12-14T10:20:16.310Z,22.15
2022-12-14T10:22:47.749Z,22.67
2022-12-14T10:25:20.307Z,21.82
2022-12-14T10:28:10.400Z,22.35
2022-12-14T10:30:21.842Z,22.75
2022-12-14T10:32:56.534Z,23.45
2022-12-14T10:38:28.578Z,21.60
2022-12-14T10:41:22.168Z,21.77
2022-12-14T10:44:13.538Z,21.30
2022-12-14T10:47:02.906Z,20.45
2022-12-14T10:49:35.690Z,19.80
2022-12-14T10:52:14.440Z,20.32
2022-12-14T10:55:04.774Z,19.73
2022-12-14T10:57:33.135Z,19.55
2022-12-14T11:00:09.021Z,18.57
2022-12-14T11:02:36.038Z,18.67
2022-12-14T11:05:28.693Z,17.90
2022-12-14T11:07:56.143Z,17.90
2022-12-14T11:10:29.757Z,16.40
2022-12-14T11:13:13.817Z,15.55
2022-12-14T11:15:45.671Z,14.35
2022-12-14T11:18:23.006Z,14.93
2022-12-14T11:20:55.931Z,15.48
2022-12-14T11:23:48.379Z,15.00
2022-12-14T11:26:26.110Z,15.38
2022-12-14T11:28:59.183Z,14.55
2022-12-14T11:31:31.280Z,14.83
2022-12-14T11:34:00.544Z,15.35
2022-12-14T11:36:42.758Z,14.25
2022-12-14T11:39:17.558Z,13.35
2022-12-14T11:41:55.146Z,15.90
2022-12-14T11:44:26.407Z,14.33
2022-12-14T11:47:12.682Z,15.30
2022-12-14T11:49:44.380Z,16.30
2022-12-14T11:52:27.115Z,17.05
2022-12-14T11:55:01.686Z,17.10
2022-12-14T11:57:35.288Z,17.23
2022-12-14T12:00:20.341Z,17.10
2022-12-14T12:02:51.549Z,16.87
2022-12-14T12:05:22.484Z,17.23
2022-12-14T12:07:54.504Z,24.63
2022-12-14T12:10:49.661Z,18.92
2022-12-14T12:13:31.536Z,17.48
2022-12-14T12:16:05.902Z,16.70
2022-12-14T12:21:19.393Z,16.95
2022-12-14T12:24:02.995Z,17.90
2022-12-14T12:26:50.432Z,17.10
2022-12-14T12:29:22.284Z,16.40
2022-12-14T12:32:00.012Z,20.90
2022-12-14T12:34:50.007Z,20.65
2022-12-14T12:37:26.831Z,31.87
2022-12-14T12:39:55.160Z,23.45
2022-12-14T12:42:50.946Z,20.15
2022-12-14T12:45:44.999Z,24.70
2022-12-14T12:48:43.670Z,22.85
2022-12-14T12:51:15.383Z,22.80
2022-12-14T12:56:33.854Z,21.73
2022-12-14T12:59:04.036Z,23.22
2022-12-14T13:01:38.689Z,22.40
2022-12-14T13:04:11.519Z,22.80
2022-12-14T13:06:55.643Z,20.52
2022-12-14T13:09:35.967Z,22.87
2022-12-14T13:12:05.892Z,19.75
2022-12-14T13:14:40.299Z,20.02
2022-12-14T13:17:12.192Z,22.02
2022-12-14T13:19:51.908Z,24.07
2022-12-14T13:22:20.187Z,20.17
2022-12-14T13:24:51.804Z,20.80
2022-12-14T13:27:37.624Z,21.00
2022-12-14T13:30:11.943Z,18.98
2022-12-14T13:33:00.317Z,17.73
2022-12-14T13:39:16.854Z,19.27
2022-12-14T13:41:54.261Z,18.65
2022-12-14T13:44:47.040Z,18.73
2022-12-14T13:47:18.736Z,17.90
2022-12-14T13:50:26.966Z,18.62
2022-12-14T13:52:38.128Z,20.43
2022-12-14T13:55:26.640Z,18.60
2022-12-14T13:58:10.429Z,18.77
2022-12-14T14:00:41.827Z,18.80
2022-12-14T14:03:30.609Z,18.40
2022-12-14T14:06:26.008Z,17.40
2022-12-14T14:08:54.399Z,17.37
2022-12-14T14:11:39.982Z,17.07
2022-12-14T14:14:25.154Z,17.27
2022-12-14T14:17:02.737Z,17.90
2022-12-14T14:19:34.380Z,17.30
2022-12-14T14:22:27.695Z,17.00
2022-12-14T14:24:57.094Z,17.60
2022-12-14T14:27:40.848Z,18.75
2022-12-14T14:30:30.218Z,17.62
2022-12-14T14:33:19.972Z,16.67
2022-12-14T14:35:37.507Z,16.32
2022-12-14T14:38:28.057Z,16.97
2022-12-14T14:41:16.578Z,16.85
2022-12-14T14:43:39.401Z,16.85
2022-12-14T14:46:10.362Z,16.95
2022-12-14T14:48:53.459Z,15.55
2022-12-14T14:51:28.046Z,18.27
2022-12-14T14:56:53.786Z,15.80
2022-12-14T14:59:38.441Z,15.38
2022-12-14T15:02:10.261Z,15.90
2022-12-14T15:04:47.418Z,15.75
2022-12-14T15:07:30.389Z,15.23
2022-12-14T15:10:22.399Z,17.55
2022-12-14T15:12:50.624Z,17.67
2022-12-14T15:15:22.070Z,17.23
2022-12-14T15:17:50.391Z,17.25
2022-12-14T15:20:28.180Z,17.15
2022-12-14T15:22:57.266Z,16.12
2022-12-14T15:25:28.384Z,15.80
2022-12-14T15:27:58.223Z,15.38
2022-12-14T15:30:28.535Z,16.52
2022-12-14T15:33:00.111Z,15.68
2022-12-14T15:35:37.499Z,16.05
2022-12-14T15:38:08.155Z,16.10
2022-12-14T15:40:36.297Z,16.23
2022-12-14T15:43:18.796Z,16.48
2022-12-14T15:45:48.955Z,15.50
2022-12-14T15:48:35.306Z,16.07
2022-12-14T15:51:09.316Z,16.10
2022-12-14T15:53:40.862Z,15.45
2022-12-14T15:56:33.622Z,15.08
2022-12-14T15:59:04.120Z,16.90
2022-12-14T16:01:40.965Z,22.50
2022-12-14T16:04:23.822Z,18.95
2022-12-14T16:07:07.818Z,20.23
2022-12-14T16:09:33.791Z,19.67
2022-12-14T16:12:05.327Z,19.05
2022-12-14T16:14:42.689Z,19.42
2022-12-14T16:17:14.703Z,21.82
2022-12-14T16:22:32.154Z,21.45
2022-12-14T16:25:03.804Z,18.77
2022-12-14T16:27:35.977Z,18.80
2022-12-14T16:30:19.910Z,19.77
2022-12-14T16:32:50.465Z,18.27
2022-12-14T16:35:24.706Z,16.02
2022-12-14T16:37:54.912Z,17.37
2022-12-14T16:40:29.606Z,16.82
2022-12-14T16:42:57.168Z,17.82
2022-12-14T16:45:38.272Z,18.07
2022-12-14T16:48:12.870Z,21.65
2022-12-14T16:50:56.679Z,21.15
2022-12-14T16:53:25.584Z,19.05
2022-12-14T16:56:03.403Z,17.15
2022-12-14T16:58:31.836Z,18.73
2022-12-14T17:01:02.384Z,18.07
2022-12-14T17:03:32.356Z,17.75
2022-12-14T17:06:03.456Z,15.50
2022-12-14T17:08:33.788Z,16.05
2022-12-14T17:11:02.418Z,16.37
2022-12-14T17:13:30.693Z,17.12
2022-12-14T17:16:15.926Z,16.60
2022-12-14T17:18:44.791Z,15.98
2022-12-14T17:21:19.193Z,16.10
2022-12-14T17:23:47.039Z,16.45
2022-12-14T17:26:25.040Z,16.05
2022-12-14T17:28:55.010Z,15.93
2022-12-14T17:31:25.308Z,17.98
2022-12-14T17:33:55.513Z,17.23
2022-12-14T17:36:24.662Z,17.55
2022-12-14T17:38:53.233Z,17.55
2022-12-14T17:41:26.748Z,16.93
2022-12-14T17:43:57.157Z,16.00
2022-12-14T17:46:25.592Z,16.12
2022-12-14T17:48:53.458Z,17.40
2022-12-14T17:51:25.980Z,16.75
2022-12-14T17:53:58.877Z,17.55
2022-12-14T17:56:26.777Z,16.87
2022-12-14T17:58:55.242Z,16.87
2022-12-14T18:01:26.611Z,16.52
2022-12-14T18:03:54.980Z,16.23
2022-12-14T18:06:24.269Z,16.23
2022-12-14T18:08:52.123Z,17.02
2022-12-14T18:11:23.428Z,17.27
2022-12-14T18:13:52.388Z,16.30
2022-12-14T18:16:23.920Z,16.37
2022-12-14T18:18:54.512Z,17.57
2022-12-14T18:21:25.997Z,17.82
2022-12-14T18:23:54.481Z,17.50
2022-12-14T18:26:22.944Z,17.60
2022-12-14T18:28:52.769Z,17.10
2022-12-14T18:31:33.583Z,16.17
2022-12-14T18:34:01.622Z,16.00
2022-12-14T18:36:29.540Z,17.77
2022-12-14T18:38:57.225Z,15.45
2022-12-14T18:41:45.118Z,17.20
2022-12-14T18:44:13.721Z,16.35
2022-12-14T18:46:41.553Z,16.30
2022-12-14T18:49:09.862Z,16.25
2022-12-14T18:51:38.015Z,16.77
2022-12-14T18:54:06.684Z,15.38
2022-12-14T18:56:34.134Z,17.23
2022-12-14T18:59:01.763Z,16.40
2022-12-14T19:01:29.856Z,16.70
2022-12-14T19:03:57.842Z,15.23
2022-12-14T19:08:58.433Z,15.43
2022-12-14T19:11:35.893Z,15.70
2022-12-14T19:14:03.478Z,17.12
2022-12-14T19:16:32.669Z,15.95
2022-12-14T19:19:01.026Z,15.70
2022-12-14T19:21:30.140Z,14.80
2022-12-14T19:24:02.662Z,16.20
2022-12-14T19:26:31.260Z,15.70
2022-12-14T19:28:59.360Z,15.38
2022-12-14T19:31:29.122Z,16.00
2022-12-14T19:33:56.830Z,15.68
2022-12-14T19:36:25.614Z,14.63
2022-12-14T19:38:53.594Z,15.85
2022-12-14T19:41:21.733Z,15.28
2022-12-14T19:43:50.246Z,16.00
2022-12-14T19:46:18.612Z,16.15
2022-12-14T19:48:47.335Z,14.90
2022-12-14T19:51:17.516Z,14.83
2022-12-14T19:53:47.605Z,15.78
2022-12-14T19:56:17.844Z,16.15
2022-12-14T19:58:46.260Z,14.43
2022-12-14T20:01:16.590Z,15.72
2022-12-14T20:03:44.709Z,14.83
2022-12-14T20:06:12.531Z,16.77
2022-12-14T20:08:41.524Z,15.38
2022-12-14T20:11:11.617Z,14.55
2022-12-14T20:13:39.815Z,15.03
2022-12-14T20:16:08.609Z,15.08
2022-12-14T20:18:36.691Z,14.95
2022-12-14T20:21:07.123Z,15.28
2022-12-14T20:23:36.696Z,14.45
2022-12-14T20:26:07.298Z,14.58
2022-12-14T20:28:49.625Z,14.38
2022-12-14T20:31:18.065Z,14.30
2022-12-14T20:33:46.071Z,14.23
2022-12-14T20:36:13.659Z,14.90
2022-12-14T20:38:42.858Z,14.50
2022-12-14T20:41:13.379Z,14.33
2022-12-14T20:43:44.750Z,13.38
2022-12-14T20:46:32.490Z,13.80
2022-12-14T20:49:02.601Z,14.58
2022-12-14T20:51:35.687Z,13.22
2022-12-14T20:54:05.616Z,13.78
2022-12-14T20:56:35.516Z,15.32
2022-12-14T20:59:07.034Z,13.85
2022-12-14T21:01:38.100Z,13.20
2022-12-14T21:04:07.113Z,12.93
2022-12-14T21:06:38.421Z,13.03
2022-12-14T21:09:08.351Z,14.15
2022-12-14T21:12:00.891Z,12.70
2022-12-14T21:14:32.604Z,13.08
2022-12-14T21:17:01.523Z,13.90
2022-12-14T21:19:29.332Z,13.40
2022-12-14T21:21:57.595Z,12.70
2022-12-14T21:26:57.567Z,13.70
2022-12-14T21:29:25.551Z,13.43
2022-12-14T21:31:53.968Z,13.78
2022-12-14T21:34:23.568Z,13.70
2022-12-14T21:36:52.232Z,12.25
2022-12-14T21:39:20.387Z,12.10
2022-12-14T21:42:07.242Z,13.22
2022-12-14T21:44:36.304Z,12.15
2022-12-14T21:47:06.872Z,13.45
2022-12-14T21:49:39.732Z,14.18
2022-12-14T21:52:07.985Z,14.68
2022-12-14T21:54:36.500Z,14.13
2022-12-14T21:57:23.070Z,13.68
2022-12-14T21:59:51.038Z,14.83
2022-12-14T22:02:22.169Z,13.38
2022-12-14T22:04:50.557Z,13.93
2022-12-14T22:07:21.232Z,15.88
2022-12-14T22:09:50.819Z,15.85
2022-12-14T22:12:19.225Z,15.58
2022-12-14T22:14:48.617Z,16.70
2022-12-14T22:17:17.878Z,15.78
2022-12-14T22:19:46.913Z,16.05
2022-12-14T22:22:16.154Z,15.20
2022-12-14T22:24:45.070Z,16.20
2022-12-14T22:27:13.494Z,14.03
2022-12-14T22:29:41.575Z,13.50
2022-12-14T22:32:14.693Z,12.73
2022-12-14T22:34:42.288Z,13.32
2022-12-14T22:37:10.171Z,12.43
2022-12-14T22:39:40.733Z,13.38
2022-12-14T22:42:09.168Z,12.73
2022-12-14T22:44:37.826Z,12.80
2022-12-14T22:47:06.447Z,12.78
2022-12-14T22:49:34.528Z,13.18
2022-12-14T22:52:02.993Z,12.03
2022-12-14T22:54:51.335Z,13.18
2022-12-14T22:57:20.867Z,13.35
2022-12-14T22:59:52.475Z,12.07
2022-12-14T23:02:20.981Z,12.33
2022-12-14T23:04:50.003Z,12.47
2022-12-14T23:07:18.623Z,12.25
2022-12-14T23:10:05.593Z,11.33
2022-12-14T23:12:51.539Z,12.70
2022-12-14T23:15:40.906Z,11.48
2022-12-14T23:18:30.038Z,11.18
2022-12-14T23:21:19.122Z,11.30
2022-12-14T23:24:05.436Z,11.73
2022-12-14T23:26:55.540Z,10.50
2022-12-14T23:29:41.720Z,11.50
2022-12-14T23:32:28.273Z,10.93
2022-12-14T23:35:14.090Z,10.90
2022-12-14T23:38:00.556Z,10.80
2022-12-14T23:40:46.407Z,10.63
2022-12-14T23:43:41.792Z,10.05
2022-12-14T23:46:27.892Z,10.25
2022-12-14T23:49:16.146Z,10.85
2022-12-14T23:52:02.438Z,9.85
2022-12-14T23:54:48.899Z,9.58
2022-12-14T23:57:35.768Z,9.88
